Time;durP1;ratioP1;P1;durP2;ratioP2;P2;SDS_P1;SDS_P2;PMS_P1;PMS_P2;Temp;Humidity;BMP_temperature;BMP_pressure;BME280_temperature;BME280_humidity;BME280_pressure;Samples;Min_cycle;Max_cycle;Signal;HPM_P1;HPM_P2
2022/01/09 00:00:12;;;;;;;7.53;6.82;;;4.10;99.90;;;;;;5027784;28;20045;-88
2022/01/09 00:02:38;;;;;;;7.80;6.88;;;;;;;;;;5018779;28;20045;-88
2022/01/09 00:05:05;;;;;;;8.23;7.22;;;4.10;99.90;;;;;;5019890;28;20102;-86
2022/01/09 00:07:30;;;;;;;8.35;7.28;;;4.10;99.90;;;;;;5022664;28;20045;-87
2022/01/09 00:09:56;;;;;;;8.43;7.55;;;3.90;99.90;;;;;;5005848;28;20448;-88
2022/01/09 00:12:23;;;;;;;8.48;7.00;;;4.10;99.90;;;;;;5003008;28;20098;-87
2022/01/09 00:14:49;;;;;;;7.60;6.70;;;4.00;99.90;;;;;;5009861;28;20041;-87
2022/01/09 00:17:15;;;;;;;8.93;7.45;;;4.00;99.90;;;;;;5020612;28;20500;-87
2022/01/09 00:19:40;;;;;;;7.68;6.88;;;4.10;99.90;;;;;;5019681;28;20042;-86
2022/01/09 00:22:07;;;;;;;8.40;6.78;;;4.20;99.90;;;;;;5003008;28;20500;-88
2022/01/09 00:24:32;;;;;;;7.75;7.05;;;4.10;99.90;;;;;;5021925;28;20060;-88
2022/01/09 00:26:58;;;;;;;7.15;6.50;;;3.90;99.90;;;;;;5006090;28;20049;-87
2022/01/09 00:29:23;;;;;;;7.43;6.72;;;4.00;99.90;;;;;;5019377;28;20379;-86
2022/01/09 00:31:49;;;;;;;8.48;6.90;;;3.90;99.90;;;;;;5002038;28;20050;-85
2022/01/09 00:34:15;;;;;;;7.90;7.10;;;4.10;99.90;;;;;;5004306;28;20052;-87
2022/01/09 00:36:40;;;;;;;10.45;8.10;;;4.00;99.90;;;;;;5021479;28;20041;-88
2022/01/09 00:39:06;;;;;;;9.00;8.15;;;4.00;99.90;;;;;;5022152;28;20139;-86
2022/01/09 00:41:31;;;;;;;8.70;7.90;;;4.00;99.90;;;;;;5022536;28;20082;-86
2022/01/09 00:43:57;;;;;;;8.65;7.85;;;3.90;99.90;;;;;;5021607;28;20393;-86
2022/01/09 00:46:22;;;;;;;8.52;7.65;;;3.90;99.90;;;;;;5019409;28;20045;-88
2022/01/09 00:48:48;;;;;;;9.38;8.40;;;4.00;99.90;;;;;;5035833;28;20046;-87
2022/01/09 00:51:14;;;;;;;8.80;7.90;;;4.00;99.90;;;;;;5002554;28;20050;-87
2022/01/09 00:53:39;;;;;;;7.88;7.07;;;3.90;99.90;;;;;;5005548;28;20038;-87
2022/01/09 00:56:05;;;;;;;8.85;7.80;;;4.00;99.90;;;;;;5022246;28;20075;-87
2022/01/09 00:58:30;;;;;;;12.23;8.55;;;3.90;99.90;;;;;;5001589;28;20042;-86
2022/01/09 01:00:56;;;;;;;7.90;6.80;;;3.90;99.90;;;;;;5018307;28;20056;-87
2022/01/09 01:03:21;;;;;;;9.68;8.68;;;3.80;99.90;;;;;;5004407;28;20132;-87
2022/01/09 01:05:47;;;;;;;8.77;7.88;;;3.80;99.90;;;;;;5021495;28;20412;-87
2022/01/09 01:08:13;;;;;;;7.57;6.88;;;3.90;99.90;;;;;;5004198;28;20041;-87
2022/01/09 01:10:38;;;;;;;9.65;8.40;;;4.00;99.90;;;;;;5019096;28;20045;-86
2022/01/09 01:13:04;;;;;;;10.38;7.60;;;4.00;99.90;;;;;;5030174;28;20111;-87
2022/01/09 01:15:30;;;;;;;9.50;8.10;;;3.90;99.90;;;;;;5022698;28;20034;-86
2022/01/09 01:17:56;;;;;;;8.05;7.25;;;4.00;99.90;;;;;;5029310;28;20060;-86
2022/01/09 01:20:23;;;;;;;9.13;8.05;;;3.90;99.90;;;;;;5022750;28;20077;-87
2022/01/09 01:22:51;;;;;;;8.65;7.80;;;4.00;99.90;;;;;;5045517;28;20072;-87
2022/01/09 01:25:18;;;;;;;10.32;9.20;;;3.90;99.90;;;;;;5024271;28;20098;-86
2022/01/09 01:27:44;;;;;;;8.70;7.32;;;3.90;99.90;;;;;;5021960;28;20045;-87
2022/01/09 01:30:10;;;;;;;11.05;9.23;;;3.80;99.90;;;;;;5006676;28;20045;-86
2022/01/09 01:32:36;;;;;;;10.80;9.10;;;5.20;99.90;;;;;;5025113;28;20048;-87
2022/01/09 01:35:02;;;;;;;10.20;8.38;;;4.30;99.90;;;;;;5025298;28;20049;-86
2022/01/09 01:37:28;;;;;;;9.35;8.38;;;4.00;99.90;;;;;;5022402;28;20510;-87
2022/01/09 01:39:53;;;;;;;9.68;8.65;;;3.40;99.90;;;;;;5038101;28;20046;-87
2022/01/09 01:42:19;;;;;;;9.10;8.20;;;3.70;99.90;;;;;;5007370;28;20038;-86
2022/01/09 01:44:47;;;;;;;9.45;8.45;;;3.40;99.90;;;;;;5026067;28;20052;-86
2022/01/09 01:47:20;;;;;;;10.38;7.88;;;3.40;99.90;;;;;;5023854;28;20079;-87
2022/01/09 01:49:46;;;;;;;9.45;8.55;;;4.00;99.90;;;;;;5022843;28;20088;-86
2022/01/09 01:52:14;;;;;;;11.57;10.13;;;4.00;99.90;;;;;;5013210;28;20048;-87
2022/01/09 01:54:42;;;;;;;10.75;9.38;;;4.00;99.90;;;;;;5026063;28;20076;-87
2022/01/09 01:57:08;;;;;;;14.00;10.10;;;4.00;99.90;;;;;;5025023;28;20037;-87
2022/01/09 01:59:34;;;;;;;11.20;9.65;;;3.90;99.90;;;;;;5025648;28;20049;-86
2022/01/09 02:01:59;;;;;;;10.02;8.85;;;4.00;99.90;;;;;;5023951;28;20412;-87
2022/01/09 02:04:25;;;;;;;11.48;9.45;;;4.00;99.90;;;;;;5022584;28;20048;-87
2022/01/09 02:06:51;;;;;;;13.60;10.35;;;4.00;99.90;;;;;;5027513;28;20045;-87
2022/01/09 02:09:16;;;;;;;10.73;9.73;;;4.00;99.90;;;;;;5023711;28;20091;-86
2022/01/09 02:11:42;;;;;;;11.75;9.85;;;4.00;99.90;;;;;;5021528;28;20045;-87
2022/01/09 02:14:08;;;;;;;12.27;10.93;;;4.10;99.90;;;;;;5013315;28;20034;-86
2022/01/09 02:16:42;;;;;;;15.63;11.70;;;4.00;99.90;;;;;;5024427;28;20056;-86
2022/01/09 02:19:13;;;;;;;11.32;10.15;;;4.10;99.90;;;;;;5024904;28;20068;-85
2022/01/09 02:21:41;;;;;;;13.63;10.25;;;4.00;99.90;;;;;;5042088;28;20057;-87
2022/01/09 02:24:06;;;;;;;13.77;10.48;;;4.10;99.90;;;;;;5024427;28;20049;-87
2022/01/09 02:26:32;;;;;;;10.75;9.65;;;4.00;99.90;;;;;;5004852;28;20050;-86
2022/01/09 02:28:57;;;;;;;14.23;11.43;;;4.10;99.90;;;;;;5028041;28;20424;-87
2022/01/09 02:31:24;;;;;;;12.30;11.02;;;4.00;99.90;;;;;;5038267;28;20433;-87
2022/01/09 02:33:49;;;;;;;14.18;10.57;;;5.70;99.90;;;;;;5026773;28;20136;-87
2022/01/09 02:36:16;;;;;;;16.83;10.52;;;4.10;99.90;;;;;;5039992;28;20128;-87
2022/01/09 02:38:42;;;;;;;15.10;10.50;;;4.10;99.90;;;;;;5009156;28;20045;-87
2022/01/09 02:41:07;;;;;;;11.30;8.68;;;6.20;99.90;;;;;;5024340;28;20520;-87
2022/01/09 02:43:33;;;;;;;15.75;8.95;;;4.20;99.90;;;;;;5023716;28;20033;-87
2022/01/09 02:46:16;;;;;;;12.95;7.22;;;4.20;99.90;;;;;;5024208;28;20037;-87
2022/01/09 02:48:44;;;;;;;17.92;8.30;;;4.30;99.90;;;;;;5028340;28;20096;-88
2022/01/09 02:51:13;;;;;;;16.50;7.18;;;4.40;99.90;;;;;;5044972;28;20565;-87
2022/01/09 02:53:41;;;;;;;15.07;7.28;;;4.40;99.90;;;;;;5004229;28;20046;-87
2022/01/09 02:56:08;;;;;;;21.05;7.80;;;6.50;99.90;;;;;;5020641;28;20058;-87
2022/01/09 02:58:34;;;;;;;18.67;6.38;;;4.50;99.90;;;;;;5006861;28;20452;-87
2022/01/09 03:01:01;;;;;;;17.73;7.25;;;6.00;99.90;;;;;;5023902;28;20048;-87
2022/01/09 03:03:27;;;;;;;20.98;6.60;;;4.50;99.90;;;;;;5021480;28;20110;-87
2022/01/09 03:05:53;;;;;;;19.30;5.68;;;4.90;99.90;;;;;;5003713;28;20042;-87
2022/01/09 03:08:19;;;;;;;17.27;5.10;;;4.50;99.90;;;;;;5038216;28;20053;-87
2022/01/09 03:10:44;;;;;;;20.50;4.90;;;4.60;99.90;;;;;;5024018;28;20043;-87
2022/01/09 03:13:10;;;;;;;20.70;5.35;;;4.60;99.90;;;;;;5022930;28;20050;-87
2022/01/09 03:15:36;;;;;;;32.47;5.20;;;4.70;99.90;;;;;;5020409;28;20034;-88
2022/01/09 03:18:01;;;;;;;30.63;5.88;;;4.80;99.90;;;;;;5027256;28;20058;-88
2022/01/09 03:20:28;;;;;;;26.52;5.47;;;4.80;99.90;;;;;;5020559;28;20413;-88
2022/01/09 03:22:55;;;;;;;22.92;5.28;;;4.60;99.90;;;;;;5020351;28;20046;-87
2022/01/09 03:25:25;;;;;;;34.20;6.32;;;3.70;99.90;;;;;;5027524;28;20124;-86
2022/01/09 03:27:53;;;;;;;30.80;5.88;;;5.00;99.90;;;;;;5004084;28;20068;-87
2022/01/09 03:30:21;;;;;;;40.20;5.90;;;5.00;99.90;;;;;;5028261;28;20535;-87
2022/01/09 03:32:47;;;;;;;45.78;6.13;;;5.00;99.90;;;;;;5036048;28;20530;-87
2022/01/09 03:35:16;;;;;;;47.63;5.90;;;6.70;99.90;;;;;;5003654;28;20042;-87
2022/01/09 03:37:43;;;;;;;55.15;7.68;;;5.10;99.90;;;;;;5023601;28;20045;-86
2022/01/09 03:40:12;;;;;;;59.40;8.45;;;5.20;99.90;;;;;;5023290;28;20081;-88
2022/01/09 03:42:37;;;;;;;56.58;7.47;;;5.30;99.90;;;;;;5019714;28;20514;-88
2022/01/09 03:45:05;;;;;;;53.30;7.15;;;5.40;99.90;;;;;;5027061;28;20045;-88
2022/01/09 03:47:31;;;;;;;43.30;6.55;;;5.50;99.90;;;;;;5019806;28;20451;-87
2022/01/09 03:49:56;;;;;;;62.22;8.32;;;5.50;99.90;;;;;;5020067;28;20046;-87
2022/01/09 03:52:27;;;;;;;37.13;6.65;;;5.50;99.90;;;;;;5027475;28;20087;-87
2022/01/09 03:54:54;;;;;;;49.05;7.07;;;5.50;99.90;;;;;;5019501;28;20046;-87
2022/01/09 03:57:19;;;;;;;47.00;7.00;;;5.70;99.90;;;;;;5011124;28;20041;-87
2022/01/09 03:59:45;;;;;;;49.38;7.25;;;5.70;99.90;;;;;;5036479;28;20045;-86
2022/01/09 04:02:11;;;;;;;48.83;6.63;;;5.70;99.90;;;;;;5018360;28;20034;-87
2022/01/09 04:04:37;;;;;;;57.67;6.47;;;5.80;99.90;;;;;;5022973;28;20092;-88
2022/01/09 04:07:03;;;;;;;37.38;6.13;;;5.50;99.90;;;;;;5022999;28;20056;-87
2022/01/09 04:09:38;;;;;;;42.70;6.20;;;5.80;99.90;;;;;;5019865;28;20041;-88
2022/01/09 04:12:15;;;;;;;50.35;5.75;;;5.80;99.90;;;;;;5018886;28;20128;-88
2022/01/09 04:14:41;;;;;;;43.65;6.15;;;5.80;99.90;;;;;;5026618;28;20543;-87
2022/01/09 04:17:12;;;;;;;41.90;7.63;;;5.70;99.90;;;;;;5002879;28;20042;-86
2022/01/09 04:19:38;;;;;;;38.85;6.75;;;5.70;99.90;;;;;;5022619;28;20394;-88
2022/01/09 04:22:03;;;;;;;43.85;5.60;;;5.70;99.90;;;;;;5021421;28;20044;-88
2022/01/09 04:24:29;;;;;;;38.25;5.30;;;5.80;99.90;;;;;;5020703;28;20037;-88
2022/01/09 04:26:54;;;;;;;38.05;6.70;;;5.70;99.90;;;;;;5007995;28;20551;-87
2022/01/09 04:29:20;;;;;;;37.97;5.43;;;5.80;99.90;;;;;;5020756;28;20046;-85
2022/01/09 04:31:45;;;;;;;30.23;5.10;;;5.80;99.90;;;;;;5019173;28;20034;-86
2022/01/09 04:34:11;;;;;;;38.15;4.85;;;5.80;99.90;;;;;;5019107;28;20034;-87
2022/01/09 04:36:37;;;;;;;44.35;8.05;;;5.60;99.90;;;;;;5021235;28;20049;-87
2022/01/09 04:39:03;;;;;;;42.63;5.05;;;5.80;99.90;;;;;;5022456;28;20038;-88
2022/01/09 04:41:28;;;;;;;28.25;4.47;;;5.70;99.90;;;;;;5019784;28;20034;-86
2022/01/09 04:43:54;;;;;;;27.33;4.50;;;5.60;99.90;;;;;;5018318;28;20041;-87
2022/01/09 04:46:27;;;;;;;33.33;5.32;;;5.80;99.90;;;;;;5018658;28;20034;-87
2022/01/09 04:48:54;;;;;;;30.00;4.10;;;5.70;99.90;;;;;;5022153;28;20033;-86
2022/01/09 04:51:20;;;;;;;32.58;4.43;;;5.90;99.90;;;;;;5020761;28;20068;-87
2022/01/09 04:53:46;;;;;;;35.33;5.00;;;5.10;99.90;;;;;;5002335;28;20512;-87
2022/01/09 04:56:11;;;;;;;23.67;4.60;;;5.80;99.90;;;;;;5002287;28;20088;-87
2022/01/09 04:58:37;;;;;;;35.88;5.40;;;5.90;99.90;;;;;;5026118;28;20075;-88
2022/01/09 05:01:02;;;;;;;30.02;4.43;;;5.90;99.90;;;;;;5018755;28;20041;-88
2022/01/09 05:03:28;;;;;;;33.97;4.38;;;5.80;99.90;;;;;;5036645;28;20052;-87
2022/01/09 05:05:53;;;;;;;34.33;4.10;;;5.80;99.90;;;;;;5021465;28;20144;-86
2022/01/09 05:08:19;;;;;;;30.25;4.85;;;5.70;99.90;;;;;;5021707;28;20083;-88
2022/01/09 05:10:45;;;;;;;30.90;4.70;;;5.70;99.90;;;;;;5018118;28;20498;-87
2022/01/09 05:13:10;;;;;;;29.83;5.20;;;5.80;99.90;;;;;;5018049;28;20041;-88
2022/01/09 05:15:36;;;;;;;26.58;4.68;;;5.70;99.90;;;;;;5026672;28;20397;-87
2022/01/09 05:18:04;;;;;;;32.60;4.13;;;5.60;99.90;;;;;;5001366;28;20077;-85
2022/01/09 05:20:30;;;;;;;30.27;4.25;;;5.80;99.90;;;;;;5003863;28;20038;-88
2022/01/09 05:22:55;;;;;;;37.72;4.38;;;5.70;99.90;;;;;;5022104;28;20388;-86
2022/01/09 05:25:21;;;;;;;24.23;4.65;;;5.50;99.90;;;;;;5003984;28;20048;-86
2022/01/09 05:27:47;;;;;;;31.17;4.93;;;5.70;99.90;;;;;;5018438;28;20046;-87
2022/01/09 05:30:13;;;;;;;30.38;4.72;;;5.70;99.90;;;;;;4985956;28;20129;-87
2022/01/09 05:32:39;;;;;;;30.98;3.78;;;5.40;99.90;;;;;;5020399;28;20120;-88
2022/01/09 05:35:05;;;;;;;25.65;4.60;;;9.60;99.90;;;;;;5021840;28;20485;-87
2022/01/09 05:37:30;;;;;;;30.05;4.10;;;5.70;99.90;;;;;;5019518;28;20473;-87
2022/01/09 05:39:57;;;;;;;28.90;4.05;;;5.60;99.90;;;;;;5006487;28;20099;-87
2022/01/09 05:42:23;;;;;;;26.77;3.97;;;5.60;99.90;;;;;;5020563;28;20084;-86
2022/01/09 05:44:48;;;;;;;25.67;4.72;;;5.50;99.90;;;;;;5022872;28;20076;-88
2022/01/09 05:47:14;;;;;;;31.90;4.35;;;7.20;99.90;;;;;;5021313;28;20455;-85
2022/01/09 05:49:40;;;;;;;35.92;3.55;;;7.40;99.90;;;;;;5035065;28;20100;-87
2022/01/09 05:52:06;;;;;;;27.40;3.90;;;5.60;99.90;;;;;;5007886;28;20103;-87
2022/01/09 05:54:31;;;;;;;29.40;3.95;;;5.60;99.90;;;;;;5019231;28;20045;-87
2022/01/09 05:56:57;;;;;;;28.00;4.55;;;5.60;99.90;;;;;;5024351;28;20049;-86
2022/01/09 05:59:22;;;;;;;16.70;3.47;;;5.60;99.90;;;;;;5024593;28;20033;-87
2022/01/09 06:01:48;;;;;;;20.27;3.63;;;5.60;99.90;;;;;;5021127;28;20065;-87
2022/01/09 06:04:13;;;;;;;17.50;3.42;;;5.60;99.90;;;;;;5005583;28;20049;-85
2022/01/09 06:06:39;;;;;;;20.02;3.47;;;5.60;99.90;;;;;;5024473;28;20033;-86
2022/01/09 06:09:05;;;;;;;20.88;3.40;;;5.60;99.90;;;;;;5024392;28;20056;-87
2022/01/09 06:11:30;;;;;;;23.83;3.55;;;5.50;99.90;;;;;;5022981;28;20077;-87
2022/01/09 06:13:56;;;;;;;20.00;2.80;;;5.60;99.90;;;;;;5038044;28;20049;-86
2022/01/09 06:16:23;;;;;;;25.42;3.03;;;5.60;99.90;;;;;;5037711;28;20053;-87
2022/01/09 06:18:48;;;;;;;22.05;2.70;;;5.60;99.90;;;;;;5025232;28;20041;-86
2022/01/09 06:21:14;;;;;;;24.98;3.13;;;5.60;99.90;;;;;;5024396;28;20057;-87
2022/01/09 06:23:40;;;;;;;28.00;3.85;;;5.60;99.90;;;;;;5021895;28;20061;-86
2022/01/09 06:26:05;;;;;;;29.75;3.72;;;5.50;99.90;;;;;;5037732;28;20056;-87
2022/01/09 06:28:31;;;;;;;28.02;3.83;;;5.60;99.90;;;;;;5038342;28;20124;-87
2022/01/09 06:30:56;;;;;;;24.33;3.33;;;5.50;99.90;;;;;;5024201;28;20516;-87
2022/01/09 06:33:22;;;;;;;21.52;4.00;;;5.50;99.90;;;;;;5007838;28;20042;-87
2022/01/09 06:35:48;;;;;;;23.95;3.47;;;5.30;99.90;;;;;;5024610;28;20034;-87
2022/01/09 06:38:13;;;;;;;29.83;3.70;;;5.80;99.90;;;;;;5024596;28;20183;-87
2022/01/09 06:40:39;;;;;;;24.70;3.47;;;5.30;99.90;;;;;;5021741;28;20405;-87
2022/01/09 06:43:05;;;;;;;17.45;3.05;;;5.40;99.90;;;;;;5026593;28;20044;-86
2022/01/09 06:45:31;;;;;;;26.85;3.92;;;5.40;99.90;;;;;;5022944;28;20040;-87
2022/01/09 06:48:00;;;;;;;30.42;3.83;;;5.40;99.90;;;;;;5025895;28;20045;-87
2022/01/09 06:50:27;;;;;;;16.67;3.15;;;5.30;99.90;;;;;;5023756;28;20045;-87
2022/01/09 06:52:53;;;;;;;22.63;3.08;;;5.30;99.90;;;;;;5023976;28;20382;-87
2022/01/09 06:55:18;;;;;;;19.02;3.15;;;5.30;99.90;;;;;;5024223;28;20469;-87
2022/01/09 06:57:44;;;;;;;25.10;3.63;;;6.50;99.90;;;;;;5020553;28;20036;-86
2022/01/09 07:00:13;;;;;;;21.63;2.60;;;5.40;99.90;;;;;;5027097;28;20110;-87
2022/01/09 07:02:38;;;;;;;23.35;3.22;;;5.40;99.90;;;;;;5021494;28;20052;-87
2022/01/09 07:05:05;;;;;;;20.48;3.67;;;5.40;99.90;;;;;;5020342;28;20124;-86
2022/01/09 07:07:30;;;;;;;13.90;2.28;;;5.40;99.90;;;;;;5021634;28;20509;-88
2022/01/09 07:09:56;;;;;;;16.90;2.83;;;6.70;99.90;;;;;;5023131;28;20033;-87
2022/01/09 07:12:21;;;;;;;16.98;2.20;;;5.30;99.90;;;;;;5023009;28;20048;-87
2022/01/09 07:14:47;;;;;;;16.52;2.88;;;5.30;99.90;;;;;;5020489;28;20409;-86
2022/01/09 07:17:13;;;;;;;20.65;3.17;;;5.40;99.90;;;;;;5020375;28;20084;-87
2022/01/09 07:19:39;;;;;;;20.23;3.35;;;5.30;99.90;;;;;;5022103;28;20127;-87
2022/01/09 07:22:05;;;;;;;20.10;2.33;;;5.40;99.90;;;;;;5023248;28;20073;-86
2022/01/09 07:24:33;;;;;;;16.40;3.15;;;5.30;99.90;;;;;;5021937;28;20537;-86
2022/01/09 07:26:58;;;;;;;16.45;2.35;;;5.30;99.90;;;;;;5020333;28;20481;-87
2022/01/09 07:29:24;;;;;;;23.10;4.57;;;5.30;99.90;;;;;;5028479;28;20044;-87
2022/01/09 07:31:51;;;;;;;18.63;2.83;;;5.20;99.90;;;;;;5022667;28;20041;-86
2022/01/09 07:34:18;;;;;;;25.25;2.08;;;5.20;99.90;;;;;;5024058;28;20049;-88
2022/01/09 07:36:43;;;;;;;24.20;3.60;;;6.90;99.90;;;;;;5021437;28;20061;-87
2022/01/09 07:39:09;;;;;;;13.30;2.25;;;5.00;99.90;;;;;;5019406;28;20373;-86
2022/01/09 07:41:35;;;;;;;23.45;3.13;;;5.00;99.90;;;;;;5004371;28;20042;-86
2022/01/09 07:44:00;;;;;;;23.08;2.47;;;5.00;99.90;;;;;;5039898;28;20037;-86
2022/01/09 07:46:26;;;;;;;15.85;2.05;;;5.00;99.90;;;;;;5021780;28;20045;-86
2022/01/09 07:48:51;;;;;;;17.40;2.38;;;5.00;99.90;;;;;;5020372;28;20057;-86
2022/01/09 07:51:17;;;;;;;16.75;2.53;;;5.10;99.90;;;;;;5027068;28;20049;-86
2022/01/09 07:53:43;;;;;;;16.92;2.28;;;5.00;99.90;;;;;;5020562;28;20049;-87
2022/01/09 07:56:08;;;;;;;13.18;2.22;;;5.90;99.90;;;;;;5003386;28;20517;-86
2022/01/09 07:58:34;;;;;;;11.88;1.95;;;5.00;99.90;;;;;;5037188;28;20128;-86
2022/01/09 08:00:59;;;;;;;13.07;2.35;;;4.90;99.90;;;;;;5021823;28;20034;-87
2022/01/09 08:03:25;;;;;;;11.68;2.03;;;4.70;99.90;;;;;;5006360;28;20037;-86
2022/01/09 08:05:50;;;;;;;16.92;1.88;;;4.80;99.90;;;;;;5019493;28;20042;-85
2022/01/09 08:08:16;;;;;;;10.40;1.38;;;4.90;99.90;;;;;;5018924;28;20200;-87
2022/01/09 08:10:42;;;;;;;15.23;1.52;;;6.20;99.90;;;;;;5037761;28;20169;-87
2022/01/09 08:13:07;;;;;;;7.07;1.10;;;4.90;99.90;;;;;;5022578;28;20038;-86
2022/01/09 08:15:33;;;;;;;10.80;1.60;;;4.90;99.90;;;;;;5021030;28;20095;-85
2022/01/09 08:17:58;;;;;;;11.23;1.73;;;4.80;99.90;;;;;;5023955;28;20398;-86
2022/01/09 08:20:24;;;;;;;13.90;2.58;;;4.90;99.90;;;;;;5031322;28;20049;-86
2022/01/09 08:22:50;;;;;;;18.65;1.95;;;4.80;99.90;;;;;;5004832;28;20041;-86
2022/01/09 08:25:17;;;;;;;12.73;2.30;;;4.80;99.90;;;;;;5022602;28;20038;-86
2022/01/09 08:27:43;;;;;;;15.45;2.17;;;6.20;99.90;;;;;;5020241;28;20405;-87
2022/01/09 08:30:11;;;;;;;15.45;2.25;;;4.80;99.90;;;;;;5035459;28;20045;-87
2022/01/09 08:32:37;;;;;;;9.82;1.95;;;4.60;99.90;;;;;;5003197;28;20608;-87
2022/01/09 08:35:05;;;;;;;10.40;2.22;;;4.90;99.90;;;;;;5022035;28;20420;-86
2022/01/09 08:37:31;;;;;;;16.23;2.88;;;4.90;99.90;;;;;;5021837;28;20041;-87
2022/01/09 08:39:56;;;;;;;12.27;2.97;;;4.70;99.90;;;;;;5018846;28;20084;-86
2022/01/09 08:42:22;;;;;;;13.10;3.15;;;4.70;99.90;;;;;;5017972;28;20052;-86
2022/01/09 08:44:47;;;;;;;16.25;3.65;;;4.80;99.90;;;;;;5021860;28;20052;-86
2022/01/09 08:47:13;;;;;;;11.90;2.05;;;4.60;99.90;;;;;;5038385;28;20136;-86
2022/01/09 08:49:39;;;;;;;18.33;2.72;;;4.70;99.90;;;;;;5020373;28;20051;-85
2022/01/09 08:52:05;;;;;;;13.70;2.55;;;4.90;99.90;;;;;;5035184;28;20046;-87
2022/01/09 08:54:30;;;;;;;17.52;2.80;;;4.90;99.90;;;;;;5035555;28;20034;-87
2022/01/09 08:56:57;;;;;;;8.32;1.70;;;4.70;99.90;;;;;;5026073;28;20042;-86
2022/01/09 08:59:22;;;;;;;20.80;3.05;;;4.90;99.90;;;;;;5009337;28;20037;-85
2022/01/09 09:01:51;;;;;;;13.80;2.47;;;4.70;99.90;;;;;;5020101;28;20596;-85
2022/01/09 09:04:17;;;;;;;14.82;2.47;;;4.80;99.90;;;;;;5018330;28;20042;-85
2022/01/09 09:06:43;;;;;;;12.27;2.13;;;5.90;99.90;;;;;;5043621;28;20054;-85
2022/01/09 09:09:09;;;;;;;17.05;1.98;;;4.80;99.90;;;;;;5007218;28;20044;-86
2022/01/09 09:11:36;;;;;;;17.50;1.60;;;4.80;99.90;;;;;;5020531;28;20041;-86
2022/01/09 09:14:03;;;;;;;12.27;2.10;;;4.80;99.90;;;;;;5006157;28;20041;-86
2022/01/09 09:16:29;;;;;;;11.30;1.85;;;4.80;99.90;;;;;;5021782;28;20041;-86
2022/01/09 09:18:55;;;;;;;14.50;2.10;;;4.80;99.90;;;;;;5001827;28;20108;-85
2022/01/09 09:21:21;;;;;;;12.63;2.20;;;4.80;99.90;;;;;;5001587;28;20038;-86
2022/01/09 09:23:46;;;;;;;17.50;2.90;;;4.70;99.90;;;;;;5020359;28;20198;-86
2022/01/09 09:26:12;;;;;;;15.05;2.50;;;4.80;99.90;;;;;;5020786;28;20048;-86
2022/01/09 09:28:38;;;;;;;9.80;1.75;;;4.80;99.90;;;;;;5021420;28;20049;-87
2022/01/09 09:31:04;;;;;;;10.38;1.70;;;4.80;99.90;;;;;;5021382;28;20033;-87
2022/01/09 09:33:30;;;;;;;15.73;2.40;;;4.80;99.90;;;;;;5025460;28;20527;-86
2022/01/09 09:36:00;;;;;;;8.13;1.38;;;4.80;99.90;;;;;;5022834;28;20066;-86
2022/01/09 09:38:25;;;;;;;19.80;2.05;;;4.80;99.90;;;;;;5012557;28;20037;-85
2022/01/09 09:40:51;;;;;;;11.13;1.75;;;4.80;99.90;;;;;;5023243;28;20485;-86
2022/01/09 09:43:17;;;;;;;16.20;2.58;;;4.80;99.90;;;;;;5006047;28;20045;-85
2022/01/09 09:45:43;;;;;;;13.75;1.63;;;4.90;99.90;;;;;;5022570;28;20045;-86
2022/01/09 09:48:09;;;;;;;15.02;1.63;;;4.90;99.90;;;;;;5025175;28;20607;-85
2022/01/09 09:50:36;;;;;;;9.70;1.63;;;6.90;99.90;;;;;;5025306;28;20046;-86
2022/01/09 09:53:02;;;;;;;9.07;1.15;;;5.00;99.90;;;;;;5024496;28;20063;-86
2022/01/09 09:55:28;;;;;;;9.40;2.15;;;4.90;99.90;;;;;;5025203;28;20037;-86
2022/01/09 09:57:54;;;;;;;13.63;1.67;;;4.90;99.90;;;;;;5023120;28;20076;-86
2022/01/09 10:00:21;;;;;;;16.52;1.95;;;4.90;99.90;;;;;;5026867;28;20037;-86
2022/01/09 10:02:57;;;;;;;12.07;1.85;;;5.20;99.90;;;;;;5025412;28;20072;-86
2022/01/09 10:05:25;;;;;;;7.97;1.33;;;4.90;99.90;;;;;;5025457;28;20520;-86
2022/01/09 10:08:05;;;;;;;9.52;1.63;;;4.90;99.90;;;;;;5024322;28;20072;-85
2022/01/09 10:10:32;;;;;;;11.15;1.75;;;4.80;99.90;;;;;;5024973;28;20116;-86
2022/01/09 10:13:13;;;;;;;9.70;2.38;;;4.80;99.90;;;;;;5022220;28;20049;-86
2022/01/09 10:15:48;;;;;;;17.55;1.80;;;4.90;99.90;;;;;;5000712;28;20046;-85
2022/01/09 10:18:40;;;;;;;16.65;1.50;;;4.80;99.90;;;;;;5021729;28;20045;-86
2022/01/09 10:21:20;;;;;;;8.57;1.35;;;4.80;99.90;;;;;;5023779;28;20397;-86
2022/01/09 10:24:03;;;;;;;13.10;1.35;;;4.80;99.90;;;;;;5024242;28;20061;-86
2022/01/09 10:26:32;;;;;;;9.02;1.45;;;4.80;99.90;;;;;;5025084;28;20405;-86
2022/01/09 10:28:58;;;;;;;12.18;1.95;;;4.80;99.90;;;;;;5022798;28;20049;-86
2022/01/09 10:31:23;;;;;;;12.32;1.65;;;4.70;99.90;;;;;;5010152;28;20091;-87
2022/01/09 10:34:01;;;;;;;10.02;1.77;;;4.70;99.90;;;;;;5023331;28;20053;-86
2022/01/09 10:36:48;;;;;;;7.90;1.50;;;4.90;99.90;;;;;;5004717;28;20030;-85
2022/01/09 10:39:26;;;;;;;20.48;2.05;;;4.90;99.90;;;;;;5025578;28;20489;-85
2022/01/09 10:41:58;;;;;;;9.90;1.05;;;5.10;99.90;;;;;;5023673;28;20061;-87
2022/01/09 10:44:35;;;;;;;4.78;1.10;;;5.00;99.90;;;;;;5023393;28;20037;-86
2022/01/09 10:47:03;;;;;;;14.13;2.10;;;5.00;99.90;;;;;;5021086;28;20049;-86
2022/01/09 10:49:36;;;;;;;5.97;1.40;;;5.10;99.90;;;;;;5026992;28;20048;-86
2022/01/09 10:52:13;;;;;;;7.60;1.20;;;4.80;99.90;;;;;;5021487;28;20512;-86
2022/01/09 10:54:40;;;;;;;15.38;2.53;;;6.70;99.90;;;;;;5003363;28;20584;-86
2022/01/09 10:57:16;;;;;;;8.57;1.13;;;5.00;99.90;;;;;;5023713;28;20041;-87
2022/01/09 10:59:42;;;;;;;15.23;2.13;;;5.00;99.90;;;;;;5024169;28;20067;-86
2022/01/09 11:02:10;;;;;;;12.27;1.10;;;5.00;99.90;;;;;;5020144;28;20038;-87
2022/01/09 11:04:36;;;;;;;10.98;1.20;;;5.20;99.90;;;;;;5020729;28;20042;-86
2022/01/09 11:07:03;;;;;;;7.05;1.85;;;5.20;99.90;;;;;;5006418;28;20045;-86
2022/01/09 11:09:30;;;;;;;13.18;1.38;;;5.20;99.90;;;;;;5023197;28;20049;-86
2022/01/09 11:11:56;;;;;;;12.90;2.03;;;5.20;99.90;;;;;;5022137;28;20120;-86
2022/01/09 11:14:23;;;;;;;12.70;1.52;;;5.30;99.90;;;;;;5020409;28;20120;-87
2022/01/09 11:16:54;;;;;;;10.27;2.03;;;5.40;99.90;;;;;;5020303;28;20034;-87
2022/01/09 11:19:24;;;;;;;12.20;1.92;;;6.50;99.90;;;;;;5023939;28;20087;-87
2022/01/09 11:22:01;;;;;;;13.68;2.40;;;5.40;99.90;;;;;;5022390;28;20045;-86
2022/01/09 11:24:52;;;;;;;9.70;1.58;;;5.50;99.90;;;;;;5020355;28;20125;-87
2022/01/09 11:27:22;;;;;;;20.05;2.10;;;5.60;99.90;;;;;;5020058;28;20488;-86
2022/01/09 11:30:33;;;;;;;15.25;2.08;;;5.60;99.90;;;;;;5027887;28;20053;-87
2022/01/09 11:33:12;;;;;;;14.32;2.17;;;5.70;99.90;;;;;;4993591;28;20124;-86
2022/01/09 11:35:59;;;;;;;14.32;2.53;;;5.80;99.90;;;;;;5003763;28;20056;-85
2022/01/09 11:39:13;;;;;;;17.85;1.85;;;5.90;99.90;;;;;;5020023;28;20482;-86
2022/01/09 11:41:43;;;;;;;17.35;2.47;;;5.90;99.90;;;;;;5026241;28;20042;-87
2022/01/09 11:44:12;;;;;;;14.07;2.40;;;6.00;99.90;;;;;;5020319;28;20049;-87
2022/01/09 11:47:02;;;;;;;13.30;1.88;;;6.10;99.90;;;;;;5010184;28;20151;-87
2022/01/09 11:49:30;;;;;;;9.63;1.83;;;6.20;99.90;;;;;;5019592;28;20129;-87
2022/01/09 11:51:59;;;;;;;13.25;1.63;;;5.90;99.90;;;;;;5019289;28;20046;-86
2022/01/09 11:54:25;;;;;;;13.32;1.60;;;6.20;99.90;;;;;;5022941;28;20512;-86
2022/01/09 11:56:55;;;;;;;12.98;2.42;;;6.30;99.90;;;;;;5022721;28;20053;-87
2022/01/09 11:59:27;;;;;;;18.13;1.75;;;6.40;99.90;;;;;;5019538;28;20038;-87
2022/01/09 12:02:15;;;;;;;10.27;1.35;;;6.30;99.90;;;;;;5036399;28;20042;-87
2022/01/09 12:04:40;;;;;;;15.60;1.73;;;6.30;99.90;;;;;;5010424;28;20061;-86
2022/01/09 12:07:08;;;;;;;11.43;1.80;;;6.30;99.90;;;;;;5021184;28;20562;-87
2022/01/09 12:09:50;;;;;;;10.75;1.58;;;6.30;99.90;;;;;;5019603;28;20049;-87
2022/01/09 12:12:33;;;;;;;11.50;1.40;;;6.30;99.90;;;;;;5021882;28;20103;-86
2022/01/09 12:17:26;;;;;;;9.95;1.20;;;6.40;99.90;;;;;;5019272;28;20100;-84
2022/01/09 12:20:07;;;;;;;13.98;2.50;;;6.60;99.90;;;;;;5018524;28;20042;-86
2022/01/09 12:22:40;;;;;;;13.93;1.27;;;6.50;99.90;;;;;;5019484;28;20108;-86
2022/01/09 12:25:07;;;;;;;7.88;1.13;;;5.80;99.90;;;;;;5020081;28;20046;-88
2022/01/09 12:27:43;;;;;;;12.02;1.88;;;6.40;99.90;;;;;;5022305;28;20068;-86
2022/01/09 12:30:32;;;;;;;12.05;1.63;;;6.40;99.90;;;;;;5036504;28;20057;-87
2022/01/09 12:33:00;;;;;;;6.78;1.45;;;6.30;99.90;;;;;;5026179;28;20509;-86
2022/01/09 12:35:27;;;;;;;13.85;1.42;;;6.30;99.90;;;;;;5003044;28;20038;-87
2022/01/09 12:38:00;;;;;;;10.45;2.72;;;6.30;99.90;;;;;;5002488;28;20133;-87
2022/01/09 12:40:28;;;;;;;6.65;0.90;;;6.20;99.90;;;;;;5005944;28;20051;-85
2022/01/09 12:42:57;;;;;;;7.40;1.05;;;6.20;99.90;;;;;;5021994;28;20135;-85
2022/01/09 12:45:22;;;;;;;8.57;1.25;;;6.20;99.90;;;;;;5030169;28;20400;-86
2022/01/09 12:47:49;;;;;;;12.60;1.92;;;6.20;99.90;;;;;;5023313;28;20048;-85
2022/01/09 12:50:15;;;;;;;4.72;1.17;;;5.80;99.90;;;;;;5027398;28;20041;-85
2022/01/09 12:52:41;;;;;;;9.18;1.40;;;6.20;99.90;;;;;;5018531;28;20042;-85